Time;durP1;ratioP1;P1;durP2;ratioP2;P2;SDS_P1;SDS_P2;PMS_P1;PMS_P2;Temp;Humidity;BMP_temperature;BMP_pressure;BME280_temperature;BME280_humidity;BME280_pressure;Samples;Min_cycle;Max_cycle;Signal;HPM_P1;HPM_P2
2022/01/05 00:00:06;;;;;;;0.55;0.55;;;23.40;37.70;;;;;;5130385;27;20118;-72
2022/01/05 00:02:35;;;;;;;;;;;23.40;37.80;;;;;;5113159;27;20147;-72
2022/01/05 00:05:03;;;;;;;0.85;0.85;;;23.30;37.70;;;;;;5129566;27;20368;-73
2022/01/05 00:07:30;;;;;;;1.00;0.90;;;23.40;37.70;;;;;;5129532;27;20100;-73
2022/01/05 00:09:58;;;;;;;0.63;0.63;;;23.40;37.80;;;;;;5130040;27;20053;-73
2022/01/05 00:12:26;;;;;;;0.50;0.50;;;23.40;37.80;;;;;;5150960;27;20125;-73
2022/01/05 00:14:53;;;;;;;0.80;0.80;;;23.40;37.80;;;;;;5131562;27;20284;-73
2022/01/05 00:17:20;;;;;;;0.70;0.70;;;23.40;37.70;;;;;;5151325;27;20497;-73
2022/01/05 00:19:47;;;;;;;0.65;0.65;;;23.30;37.70;;;;;;5131348;27;20049;-74
2022/01/05 00:22:14;;;;;;;0.60;0.60;;;23.30;37.70;;;;;;5150260;27;20086;-73
2022/01/05 00:24:41;;;;;;;0.80;0.80;;;23.30;37.80;;;;;;5132452;27;20051;-72
2022/01/05 00:27:08;;;;;;;0.80;0.80;;;23.30;37.80;;;;;;5150111;27;20089;-73
2022/01/05 00:29:36;;;;;;;0.85;0.85;;;23.30;37.80;;;;;;5150064;27;20517;-73
2022/01/05 00:32:04;;;;;;;1.10;1.00;;;23.30;37.80;;;;;;5150092;27;20042;-74
2022/01/05 00:34:31;;;;;;;0.60;0.57;;;23.30;37.80;;;;;;5150671;27;20612;-73
2022/01/05 00:36:58;;;;;;;0.70;0.70;;;23.30;37.80;;;;;;5150108;27;20074;-73
2022/01/05 00:39:25;;;;;;;1.15;0.90;;;23.30;37.80;;;;;;5150560;27;20145;-73
2022/01/05 00:41:52;;;;;;;0.65;0.60;;;23.30;37.80;;;;;;5149844;27;20563;-73
2022/01/05 00:44:20;;;;;;;0.55;0.55;;;23.30;38.40;;;;;;5150527;27;20091;-73
2022/01/05 00:46:47;;;;;;;0.70;0.70;;;23.30;37.80;;;;;;5150156;27;20111;-73
2022/01/05 00:49:14;;;;;;;0.80;0.70;;;23.30;37.80;;;;;;5131853;27;20528;-74
2022/01/05 00:51:41;;;;;;;0.65;0.65;;;23.30;37.80;;;;;;5149334;27;20252;-74
2022/01/05 00:54:08;;;;;;;0.73;0.73;;;23.30;37.80;;;;;;5150000;27;20636;-73
2022/01/05 00:56:36;;;;;;;0.98;0.77;;;23.30;37.80;;;;;;5149281;27;20514;-73
2022/01/05 00:59:03;;;;;;;0.55;0.55;;;23.30;37.80;;;;;;5131666;27;20042;-73
2022/01/05 01:01:30;;;;;;;0.60;0.60;;;23.30;37.70;;;;;;5149531;27;20092;-73
2022/01/05 01:03:57;;;;;;;0.60;0.60;;;23.40;37.80;;;;;;5148481;27;20566;-73
2022/01/05 01:06:25;;;;;;;1.23;0.70;;;23.30;37.70;;;;;;5150054;27;20050;-73
2022/01/05 01:08:52;;;;;;;0.90;0.90;;;23.30;37.70;;;;;;5149266;27;20034;-73
2022/01/05 01:11:19;;;;;;;1.10;0.70;;;23.30;37.70;;;;;;5149528;27;20089;-74
2022/01/05 01:13:46;;;;;;;0.60;0.60;;;23.30;37.70;;;;;;5149562;27;20171;-73
2022/01/05 01:16:13;;;;;;;0.65;0.65;;;23.30;37.70;;;;;;5149899;27;20043;-73
2022/01/05 01:18:41;;;;;;;0.70;0.70;;;23.30;37.70;;;;;;5149198;27;20054;-73
2022/01/05 01:21:08;;;;;;;0.90;0.50;;;23.30;37.70;;;;;;5149243;27;20544;-73
2022/01/05 01:23:37;;;;;;;0.88;0.88;;;23.30;37.80;;;;;;5149426;27;20055;-73
2022/01/05 01:26:04;;;;;;;0.60;0.55;;;23.30;37.80;;;;;;5148551;27;20074;-72
2022/01/05 01:28:31;;;;;;;0.60;0.60;;;23.30;37.80;;;;;;5149488;27;20049;-73
2022/01/05 01:30:58;;;;;;;0.50;0.50;;;23.30;37.80;;;;;;5149161;27;20091;-73
2022/01/05 01:33:25;;;;;;;0.60;0.60;;;23.30;37.80;;;;;;5148692;27;20126;-73
2022/01/05 01:35:52;;;;;;;0.82;0.80;;;23.30;37.80;;;;;;5148991;27;20564;-73
2022/01/05 01:38:19;;;;;;;0.70;0.65;;;23.30;37.80;;;;;;5148780;27;20130;-73
2022/01/05 01:40:47;;;;;;;0.70;0.70;;;23.30;37.80;;;;;;5148610;27;20123;-73
2022/01/05 01:43:15;;;;;;;0.60;0.60;;;23.30;37.80;;;;;;5130344;27;20038;-73
2022/01/05 01:45:43;;;;;;;0.65;0.65;;;23.30;37.80;;;;;;5130667;27;20467;-73
2022/01/05 01:48:10;;;;;;;0.93;0.50;;;23.30;37.80;;;;;;5130789;27;20111;-73
2022/01/05 01:50:37;;;;;;;0.68;0.68;;;23.30;37.80;;;;;;5147971;27;20082;-73
2022/01/05 01:53:04;;;;;;;0.73;0.43;;;23.30;37.80;;;;;;5149520;27;20074;-74
2022/01/05 01:55:34;;;;;;;0.93;0.80;;;23.20;37.70;;;;;;5148217;27;20296;-73
2022/01/05 01:58:02;;;;;;;0.80;0.80;;;23.30;37.80;;;;;;5149562;27;20090;-72
2022/01/05 02:00:32;;;;;;;0.50;0.50;;;23.30;37.70;;;;;;5148273;27;20081;-72
2022/01/05 02:02:59;;;;;;;0.60;0.60;;;23.30;37.80;;;;;;5148610;27;20310;-74
2022/01/05 02:05:26;;;;;;;0.95;0.40;;;23.30;37.80;;;;;;5148337;27;20126;-73
2022/01/05 02:07:53;;;;;;;0.80;0.63;;;23.20;37.70;;;;;;5124163;27;20070;-73
2022/01/05 02:10:21;;;;;;;0.43;0.43;;;23.20;37.70;;;;;;5127396;27;20039;-73
2022/01/05 02:12:50;;;;;;;0.57;0.57;;;23.20;37.70;;;;;;5128051;27;20113;-73
2022/01/05 02:15:17;;;;;;;0.57;0.57;;;23.20;37.80;;;;;;5126134;27;20096;-73
2022/01/05 02:18:20;;;;;;;0.70;0.70;;;23.20;37.70;;;;;;5128427;27;20054;-73
2022/01/05 02:20:37;;;;;;;0.40;0.40;;;23.20;38.30;;;;;;5126510;27;20455;-73
2022/01/05 02:23:05;;;;;;;0.60;0.60;;;23.20;37.80;;;;;;5128264;27;20112;-73
2022/01/05 02:25:32;;;;;;;0.50;0.50;;;23.20;37.80;;;;;;5126947;27;20575;-73
2022/01/05 02:27:59;;;;;;;0.60;0.60;;;23.20;37.70;;;;;;5128007;27;20079;-72
2022/01/05 02:30:29;;;;;;;1.65;0.50;;;23.20;37.80;;;;;;5126402;27;20043;-73
2022/01/05 02:32:57;;;;;;;;;;;23.20;37.70;;;;;;5127615;27;20046;-73
2022/01/05 02:35:25;;;;;;;1.48;1.13;;;23.20;37.70;;;;;;5126601;27;19919;-73
2022/01/05 02:37:54;;;;;;;1.95;0.77;;;23.20;37.70;;;;;;5127398;27;20047;-73
2022/01/05 02:40:23;;;;;;;1.13;0.50;;;23.20;37.80;;;;;;5125280;27;20499;-73
2022/01/05 02:42:53;;;;;;;0.65;0.60;;;23.20;37.70;;;;;;5148368;27;20078;-73
2022/01/05 02:45:21;;;;;;;0.57;0.57;;;23.20;37.80;;;;;;5147109;27;20558;-73
2022/01/05 02:47:49;;;;;;;0.47;0.47;;;23.20;37.70;;;;;;5148200;27;20050;-73
2022/01/05 02:50:16;;;;;;;0.60;0.55;;;23.20;37.70;;;;;;5146866;27;20129;-73
2022/01/05 02:52:44;;;;;;;0.60;0.60;;;23.20;37.70;;;;;;5148425;27;20046;-73
2022/01/05 02:55:12;;;;;;;0.68;0.68;;;23.20;37.70;;;;;;5146886;27;20487;-73
2022/01/05 02:57:39;;;;;;;0.45;0.45;;;23.20;37.70;;;;;;5148389;27;20543;-73
2022/01/05 03:00:09;;;;;;;0.50;0.50;;;23.20;37.70;;;;;;5128862;27;20046;-73
2022/01/05 03:02:37;;;;;;;0.73;0.73;;;23.20;37.70;;;;;;5128922;27;20483;-72
2022/01/05 03:05:05;;;;;;;0.50;0.50;;;23.20;37.70;;;;;;5147014;27;20125;-73
2022/01/05 03:07:35;;;;;;;0.60;0.60;;;23.20;37.70;;;;;;5148241;27;20406;-73
2022/01/05 03:10:03;;;;;;;0.70;0.50;;;23.20;37.70;;;;;;5147176;27;20050;-72
2022/01/05 03:12:30;;;;;;;0.43;0.43;;;23.20;37.70;;;;;;5147863;27;20050;-72
2022/01/05 03:14:57;;;;;;;0.65;0.65;;;23.20;37.70;;;;;;5145959;27;20043;-73
2022/01/05 03:17:24;;;;;;;0.50;0.50;;;23.20;37.70;;;;;;5147866;27;20076;-73
2022/01/05 03:19:52;;;;;;;0.52;0.52;;;23.20;37.70;;;;;;5146805;27;20456;-73
2022/01/05 03:22:19;;;;;;;0.40;0.40;;;23.20;37.70;;;;;;5129671;27;20050;-73
2022/01/05 03:24:46;;;;;;;0.43;0.43;;;23.20;37.70;;;;;;5147489;27;20118;-73
2022/01/05 03:27:13;;;;;;;0.68;0.65;;;23.20;37.70;;;;;;5150364;27;20081;-73
2022/01/05 03:29:40;;;;;;;0.52;0.52;;;23.20;37.70;;;;;;5151949;27;20142;-73
2022/01/05 03:32:24;;;;;;;0.50;0.50;;;23.20;37.70;;;;;;5151407;27;20225;-72
2022/01/05 03:34:52;;;;;;;0.43;0.43;;;23.20;37.70;;;;;;5151404;27;20085;-73
2022/01/05 03:37:19;;;;;;;0.52;0.52;;;23.20;37.70;;;;;;5151406;27;20571;-73
2022/01/05 03:39:46;;;;;;;0.30;0.30;;;23.20;37.70;;;;;;5152270;27;20082;-73
2022/01/05 03:42:13;;;;;;;0.65;0.65;;;23.20;37.70;;;;;;5151652;27;20074;-73
2022/01/05 03:44:40;;;;;;;0.50;0.50;;;23.20;37.70;;;;;;5151247;27;20083;-73
2022/01/05 03:47:07;;;;;;;0.50;0.50;;;23.20;37.70;;;;;;5151130;27;20526;-72
2022/01/05 03:49:34;;;;;;;0.45;0.45;;;23.20;37.70;;;;;;5151445;27;20129;-72
2022/01/05 03:52:04;;;;;;;0.40;0.40;;;23.10;37.70;;;;;;5150717;27;20035;-73
2022/01/05 03:54:31;;;;;;;0.50;0.50;;;23.20;37.70;;;;;;5151467;27;20081;-72
2022/01/05 03:57:19;;;;;;;0.60;0.60;;;23.20;37.70;;;;;;5150804;27;20557;-74
2022/01/05 03:59:47;;;;;;;0.47;0.47;;;23.20;37.70;;;;;;5151075;27;20463;-73
2022/01/05 04:02:14;;;;;;;0.40;0.40;;;23.20;37.70;;;;;;5150102;27;20122;-73
2022/01/05 04:04:41;;;;;;;0.60;0.60;;;23.10;37.70;;;;;;5151430;27;20137;-73
2022/01/05 04:07:08;;;;;;;0.65;0.63;;;23.20;37.70;;;;;;5150235;27;20305;-73
2022/01/05 04:09:36;;;;;;;0.55;0.55;;;23.20;37.70;;;;;;5151183;27;20357;-73
2022/01/05 04:12:04;;;;;;;0.35;0.35;;;23.20;37.70;;;;;;5150727;27;20054;-73
2022/01/05 04:14:31;;;;;;;0.70;0.70;;;23.20;37.70;;;;;;5150786;27;20310;-72
2022/01/05 04:17:04;;;;;;;0.40;0.40;;;23.20;37.70;;;;;;5149687;27;20461;-73
2022/01/05 04:19:31;;;;;;;0.55;0.55;;;23.20;37.70;;;;;;5150572;27;20576;-72
2022/01/05 04:21:59;;;;;;;0.60;0.60;;;23.20;37.70;;;;;;5124986;27;20043;-72
2022/01/05 04:24:26;;;;;;;0.43;0.43;;;23.20;37.70;;;;;;5129962;27;20054;-72
2022/01/05 04:26:53;;;;;;;0.60;0.52;;;23.20;37.70;;;;;;5128877;27;20134;-73
2022/01/05 04:29:20;;;;;;;1.20;1.10;;;23.20;37.80;;;;;;5112299;27;20130;-72
2022/01/05 04:31:47;;;;;;;0.50;0.50;;;23.20;37.70;;;;;;5127207;27;20495;-74
2022/01/05 04:34:14;;;;;;;0.30;0.30;;;23.20;37.70;;;;;;5123376;27;20052;-72
2022/01/05 04:37:02;;;;;;;0.60;0.60;;;23.20;37.70;;;;;;5115492;27;20060;-73
2022/01/05 04:39:29;;;;;;;0.40;0.40;;;23.20;37.70;;;;;;5095492;28;20086;-73
2022/01/05 04:41:56;;;;;;;0.40;0.40;;;23.20;37.70;;;;;;5108479;28;20553;-72
2022/01/05 04:44:23;;;;;;;1.35;0.40;;;23.20;38.30;;;;;;5117272;27;20400;-73
2022/01/05 04:46:50;;;;;;;0.40;0.40;;;23.20;37.70;;;;;;5108642;28;20123;-73
2022/01/05 04:49:17;;;;;;;0.55;0.30;;;23.20;37.70;;;;;;5108930;28;20055;-73
2022/01/05 04:51:44;;;;;;;0.80;0.63;;;23.20;37.70;;;;;;5126220;27;20265;-73
2022/01/05 04:54:11;;;;;;;0.40;0.40;;;23.20;37.70;;;;;;5142086;27;20483;-73
2022/01/05 04:56:39;;;;;;;0.40;0.40;;;23.20;37.70;;;;;;5108321;27;20048;-73
2022/01/05 04:59:06;;;;;;;0.32;0.32;;;23.20;37.70;;;;;;5108881;28;20130;-72
2022/01/05 05:01:33;;;;;;;0.38;0.38;;;23.10;37.70;;;;;;5122537;27;20043;-72
2022/01/05 05:04:00;;;;;;;0.40;0.40;;;23.10;37.60;;;;;;5128743;27;20069;-73
2022/01/05 05:06:27;;;;;;;0.55;0.55;;;23.10;37.60;;;;;;5129432;27;20081;-73
2022/01/05 05:08:55;;;;;;;0.40;0.40;;;23.10;37.60;;;;;;5128581;27;20071;-73
2022/01/05 05:11:22;;;;;;;0.40;0.40;;;23.10;37.60;;;;;;5129044;27;20449;-73
2022/01/05 05:13:49;;;;;;;0.47;0.47;;;23.10;37.60;;;;;;5127800;27;20122;-73
2022/01/05 05:16:16;;;;;;;0.50;0.50;;;23.10;37.60;;;;;;5128665;27;20077;-74
2022/01/05 05:18:43;;;;;;;0.70;0.70;;;23.10;37.70;;;;;;5128351;27;20355;-73
2022/01/05 05:21:10;;;;;;;0.43;0.40;;;23.10;37.60;;;;;;5128401;27;20074;-72
2022/01/05 05:23:37;;;;;;;0.55;0.55;;;23.10;37.60;;;;;;5128339;27;20075;-73
2022/01/05 05:26:04;;;;;;;0.40;0.32;;;23.10;37.60;;;;;;5128240;27;20130;-73
2022/01/05 05:28:32;;;;;;;0.45;0.45;;;23.10;37.70;;;;;;5128677;27;20456;-73
2022/01/05 05:30:59;;;;;;;0.32;0.32;;;23.10;37.60;;;;;;5128236;27;20479;-72
2022/01/05 05:33:32;;;;;;;0.50;0.40;;;23.10;37.60;;;;;;5126728;27;20096;-74
2022/01/05 05:35:59;;;;;;;0.68;0.68;;;23.10;37.60;;;;;;5128364;27;20088;-72
2022/01/05 05:38:26;;;;;;;0.22;0.22;;;23.10;37.70;;;;;;5099775;27;20109;-73
2022/01/05 05:40:53;;;;;;;0.60;0.60;;;23.10;38.20;;;;;;5116199;27;20086;-73
2022/01/05 05:43:20;;;;;;;0.57;0.47;;;23.10;37.70;;;;;;5107189;27;20126;-73
2022/01/05 05:45:47;;;;;;;0.60;0.60;;;23.10;37.70;;;;;;5123521;27;20130;-73
2022/01/05 05:48:14;;;;;;;0.65;0.65;;;23.10;37.70;;;;;;5107286;28;20123;-72
2022/01/05 05:50:42;;;;;;;0.50;0.50;;;23.10;38.40;;;;;;5108316;27;20125;-73
2022/01/05 05:53:10;;;;;;;0.40;0.40;;;23.10;37.70;;;;;;5110476;27;20078;-74
2022/01/05 05:55:38;;;;;;;0.40;0.40;;;23.10;37.70;;;;;;5124284;27;20500;-73
2022/01/05 05:58:05;;;;;;;1.05;0.52;;;23.10;37.80;;;;;;5129762;27;20071;-73
2022/01/05 06:00:33;;;;;;;0.63;0.63;;;23.10;37.70;;;;;;5121097;27;20086;-73
2022/01/05 06:03:00;;;;;;;0.40;0.40;;;23.10;37.80;;;;;;5119152;27;20046;-72
2022/01/05 06:05:28;;;;;;;0.45;0.45;;;23.10;38.30;;;;;;5127160;27;20046;-73
2022/01/05 06:07:55;;;;;;;0.40;0.40;;;23.10;37.80;;;;;;5128486;27;20085;-75
2022/01/05 06:10:22;;;;;;;0.52;0.52;;;23.10;37.70;;;;;;5127609;27;20035;-77
2022/01/05 06:12:49;;;;;;;0.50;0.50;;;23.10;37.70;;;;;;5133595;27;20491;-76
2022/01/05 06:15:16;;;;;;;0.47;0.47;;;23.20;37.70;;;;;;5132793;27;20118;-78
2022/01/05 06:17:44;;;;;;;0.85;0.38;;;23.20;37.70;;;;;;5114912;27;20496;-74
2022/01/05 06:20:12;;;;;;;0.50;0.50;;;23.20;37.60;;;;;;5129153;27;20079;-74
2022/01/05 06:22:41;;;;;;;2.22;0.90;;;23.20;37.60;;;;;;5124211;27;20444;-76
2022/01/05 06:25:10;;;;;;;0.40;0.40;;;23.20;37.50;;;;;;5119860;27;20039;-76
2022/01/05 06:27:38;;;;;;;0.68;0.68;;;23.20;37.40;;;;;;5124588;27;20086;-78
2022/01/05 06:30:08;;;;;;;0.55;0.55;;;23.30;37.40;;;;;;5121003;27;20129;-72
2022/01/05 06:32:41;;;;;;;0.47;0.47;;;23.30;37.80;;;;;;5119803;27;20133;-71
2022/01/05 06:35:08;;;;;;;0.52;0.50;;;23.30;37.50;;;;;;5122140;27;20092;-72
2022/01/05 06:37:36;;;;;;;0.50;0.50;;;23.40;37.50;;;;;;5130902;27;20497;-70
2022/01/05 06:40:04;;;;;;;0.38;0.38;;;23.50;37.30;;;;;;5128671;27;20476;-70
2022/01/05 06:42:31;;;;;;;0.70;0.60;;;23.50;37.20;;;;;;5114509;27;20081;-68
2022/01/05 06:44:58;;;;;;;1.20;0.73;;;23.60;37.90;;;;;;5127694;27;20461;-67
2022/01/05 06:47:25;;;;;;;1.20;0.77;;;23.60;38.40;;;;;;5127394;27;20039;-75
2022/01/05 06:49:53;;;;;;;0.60;0.60;;;23.70;38.20;;;;;;5125290;27;20467;-71
2022/01/05 06:56:21;;;;;;;0.88;0.80;;;23.80;37.30;;;;;;5130014;27;20486;-73
2022/01/05 06:58:48;;;;;;;1.17;1.00;;;23.90;36.80;;;;;;5109440;27;20517;-75
2022/01/05 07:01:16;;;;;;;0.95;0.85;;;23.90;36.90;;;;;;5119894;27;20075;-73
2022/01/05 07:03:44;;;;;;;1.60;0.93;;;24.00;37.30;;;;;;5126851;27;20057;-73
2022/01/05 07:06:11;;;;;;;1.55;0.85;;;24.10;37.60;;;;;;5128698;27;20480;-72
2022/01/05 07:11:49;;;;;;;5.68;1.60;;;24.20;37.90;;;;;;5119684;27;20548;-74
2022/01/05 07:14:16;;;;;;;1.25;1.08;;;24.30;37.90;;;;;;5129296;27;20043;-72
2022/01/05 07:16:43;;;;;;;2.35;1.20;;;24.30;37.80;;;;;;5131035;27;20051;-72
2022/01/05 07:19:10;;;;;;;4.45;1.08;;;24.30;37.70;;;;;;5128636;28;20130;-78
2022/01/05 07:21:38;;;;;;;4.38;1.17;;;24.50;37.70;;;;;;5116619;27;20540;-71
2022/01/05 07:24:11;;;;;;;1.08;1.00;;;24.50;37.80;;;;;;5128914;28;20160;-77
2022/01/05 07:26:39;;;;;;;4.60;1.63;;;24.50;37.60;;;;;;5130212;28;20495;-77
2022/01/05 07:29:06;;;;;;;4.32;0.77;;;24.60;37.50;;;;;;5127725;28;20083;-79
2022/01/05 07:31:38;;;;;;;0.80;0.80;;;24.70;37.60;;;;;;5120889;27;20058;-67
2022/01/05 07:34:05;;;;;;;1.70;1.17;;;24.70;37.40;;;;;;5110209;27;20102;-71
2022/01/05 07:36:33;;;;;;;1.00;1.00;;;24.80;37.40;;;;;;5108281;28;20435;-74
2022/01/05 07:39:03;;;;;;;1.05;0.80;;;24.90;37.30;;;;;;5108614;28;20051;-76
2022/01/05 07:41:30;;;;;;;1.38;1.17;;;24.90;37.10;;;;;;5108200;27;20075;-73
2022/01/05 07:43:57;;;;;;;1.27;1.02;;;25.00;36.60;;;;;;5143451;27;20051;-69
2022/01/05 07:46:24;;;;;;;1.63;0.80;;;25.10;36.20;;;;;;5144381;27;20082;-73
2022/01/05 07:48:52;;;;;;;1.90;1.20;;;25.10;36.10;;;;;;5149045;27;20080;-76
2022/01/05 07:51:19;;;;;;;1.88;1.00;;;25.10;36.20;;;;;;5131461;27;20093;-72
2022/01/05 07:53:46;;;;;;;1.02;1.02;;;25.10;35.90;;;;;;5144147;27;20133;-75
2022/01/05 07:56:14;;;;;;;1.55;1.00;;;25.20;36.10;;;;;;5149643;27;20047;-80
2022/01/05 07:58:41;;;;;;;5.28;0.90;;;25.10;36.00;;;;;;5152043;27;20055;-64
2022/01/05 08:01:08;;;;;;;2.08;1.00;;;25.10;36.00;;;;;;5138780;27;20393;-78
2022/01/05 08:03:37;;;;;;;3.05;0.73;;;25.10;36.10;;;;;;5125758;28;20050;-73
2022/01/05 08:06:20;;;;;;;2.60;0.93;;;25.10;36.00;;;;;;5123902;28;20047;-78
2022/01/05 08:08:47;;;;;;;1.88;1.13;;;25.10;36.10;;;;;;5128486;28;20624;-77
2022/01/05 08:11:15;;;;;;;4.05;1.10;;;25.10;36.20;;;;;;5125278;27;20073;-71
2022/01/05 08:13:42;;;;;;;1.00;0.88;;;25.10;36.30;;;;;;5127502;27;20047;-74
2022/01/05 08:16:09;;;;;;;1.08;0.93;;;25.10;36.40;;;;;;5127224;27;20134;-67
2022/01/05 08:18:37;;;;;;;1.63;1.10;;;25.10;36.30;;;;;;5128981;27;20126;-67
2022/01/05 08:21:04;;;;;;;6.32;0.90;;;25.10;36.20;;;;;;5113396;27;20047;-67
2022/01/05 08:23:31;;;;;;;1.00;1.00;;;25.10;36.30;;;;;;5124546;27;20102;-71
2022/01/05 08:25:59;;;;;;;1.00;1.00;;;25.10;36.20;;;;;;5115357;27;20100;-68
2022/01/05 08:28:26;;;;;;;1.33;1.20;;;25.10;36.20;;;;;;5122000;27;20047;-72
2022/01/05 08:31:12;;;;;;;4.40;1.10;;;25.20;36.10;;;;;;5152850;27;20050;-68
2022/01/05 08:33:43;;;;;;;4.00;1.13;;;25.20;36.10;;;;;;5112077;27;20051;-69
2022/01/05 08:36:10;;;;;;;3.30;0.85;;;25.20;36.10;;;;;;5119460;27;20047;-67
2022/01/05 08:38:38;;;;;;;4.30;1.38;;;25.20;36.10;;;;;;5128890;27;20553;-67
2022/01/05 08:41:05;;;;;;;4.70;1.50;;;25.20;36.10;;;;;;5133118;27;20589;-71
2022/01/05 08:43:33;;;;;;;2.95;0.80;;;25.20;36.10;;;;;;5133227;27;20109;-77
2022/01/05 08:46:01;;;;;;;2.58;1.10;;;25.20;36.10;;;;;;5122369;27;20097;-71
2022/01/05 08:48:28;;;;;;;0.88;0.80;;;25.20;36.10;;;;;;5139652;27;20081;-66
2022/01/05 08:50:55;;;;;;;2.50;1.02;;;25.30;36.20;;;;;;5151773;27;20071;-71
2022/01/05 08:53:23;;;;;;;3.33;1.30;;;25.30;36.20;;;;;;5150498;27;20042;-65
2022/01/05 08:55:51;;;;;;;1.10;0.98;;;25.30;36.20;;;;;;5145363;27;20518;-63
2022/01/05 08:58:19;;;;;;;1.52;1.40;;;25.30;36.10;;;;;;5126583;27;20050;-62
2022/01/05 09:00:48;;;;;;;4.03;1.42;;;25.40;35.70;;;;;;5130696;27;20043;-65
2022/01/05 09:03:16;;;;;;;3.92;1.10;;;25.40;35.60;;;;;;5131595;27;20630;-66
2022/01/05 09:05:45;;;;;;;1.65;1.40;;;25.40;35.90;;;;;;5131790;27;20043;-68
2022/01/05 09:08:13;;;;;;;2.67;1.45;;;25.40;35.90;;;;;;5118712;27;20141;-64
2022/01/05 09:10:41;;;;;;;1.52;1.20;;;25.40;35.60;;;;;;5125135;27;20051;-67
2022/01/05 09:13:09;;;;;;;3.90;1.30;;;25.40;35.70;;;;;;5120218;27;20438;-66
2022/01/05 09:15:37;;;;;;;2.35;1.40;;;25.40;36.30;;;;;;5105835;27;20039;-61
2022/01/05 09:18:05;;;;;;;5.97;1.05;;;25.50;35.80;;;;;;5128040;27;20071;-63
2022/01/05 09:20:32;;;;;;;1.20;1.10;;;25.50;35.80;;;;;;5122437;27;20047;-64
2022/01/05 09:23:02;;;;;;;0.95;0.90;;;25.50;35.80;;;;;;5122599;27;20051;-66
2022/01/05 09:25:30;;;;;;;1.45;1.05;;;25.50;35.90;;;;;;5103014;27;20057;-66
2022/01/05 09:27:57;;;;;;;3.15;1.60;;;25.50;35.70;;;;;;5125050;27;20134;-66
2022/01/05 09:30:26;;;;;;;1.75;1.38;;;25.60;35.80;;;;;;5123093;27;20078;-68
2022/01/05 09:32:54;;;;;;;4.32;1.20;;;25.60;35.90;;;;;;5123955;27;20104;-68
2022/01/05 09:35:24;;;;;;;3.53;1.25;;;25.60;35.90;;;;;;5131564;27;20561;-71
2022/01/05 09:37:55;;;;;;;2.28;1.10;;;25.60;35.70;;;;;;5126604;27;20077;-68
2022/01/05 09:43:09;;;;;;;1.60;1.27;;;25.70;35.80;;;;;;5129220;27;20071;-67
2022/01/05 09:45:41;;;;;;;1.88;1.45;;;25.70;35.60;;;;;;5131521;27;20054;-66
2022/01/05 09:51:23;;;;;;;1.50;1.40;;;25.70;35.60;;;;;;5123966;27;20039;-77
2022/01/05 09:53:52;;;;;;;1.30;1.20;;;25.80;35.70;;;;;;5128541;27;20082;-69
2022/01/05 09:56:40;;;;;;;1.95;1.00;;;25.80;35.70;;;;;;5124974;27;20118;-73
2022/01/05 10:02:30;;;;;;;1.85;1.27;;;25.90;35.70;;;;;;5122186;27;20055;-76
2022/01/05 10:04:58;;;;;;;4.93;1.40;;;25.90;35.90;;;;;;5137929;27;20062;-76
2022/01/05 10:07:25;;;;;;;0.80;0.80;;;25.90;35.80;;;;;;5133558;27;20065;-65
2022/01/05 10:09:52;;;;;;;1.08;1.08;;;25.90;35.80;;;;;;5129318;27;20054;-73
2022/01/05 10:12:22;;;;;;;1.42;1.10;;;25.80;35.80;;;;;;5124706;27;20138;-69
2022/01/05 10:14:49;;;;;;;4.35;1.65;;;25.90;36.00;;;;;;5129853;27;20090;-74
2022/01/05 10:17:32;;;;;;;1.20;1.10;;;25.90;36.10;;;;;;5109894;27;20054;-73
2022/01/05 10:20:06;;;;;;;0.90;0.90;;;25.90;36.20;;;;;;5130782;27;20109;-73
2022/01/05 10:22:37;;;;;;;1.33;1.23;;;25.90;36.70;;;;;;5122669;27;20082;-77
2022/01/05 10:25:25;;;;;;;4.60;1.05;;;25.90;36.70;;;;;;5111289;28;20051;-68
2022/01/05 10:28:01;;;;;;;2.90;1.27;;;25.90;36.10;;;;;;5110069;28;20492;-72
2022/01/05 10:30:34;;;;;;;;;;;25.90;36.20;;;;;;5113394;28;20093;-68
2022/01/05 10:33:01;;;;;;;1.98;1.23;;;25.90;36.30;;;;;;5118248;27;20245;-68
2022/01/05 10:35:28;;;;;;;6.68;1.50;;;25.90;36.40;;;;;;5132356;27;20042;-74
2022/01/05 10:38:03;;;;;;;1.58;1.15;;;25.90;36.40;;;;;;5149815;27;20077;-75
2022/01/05 10:40:35;;;;;;;1.05;0.98;;;25.90;36.30;;;;;;5150369;27;20038;-69
2022/01/05 10:43:08;;;;;;;0.95;0.95;;;25.90;36.20;;;;;;5143246;27;20509;-71
2022/01/05 10:45:44;;;;;;;3.75;1.17;;;25.90;36.30;;;;;;5122952;27;20058;-73
2022/01/05 10:48:18;;;;;;;4.20;0.93;;;25.90;36.30;;;;;;5127236;27;20054;-76
2022/01/05 10:50:50;;;;;;;1.42;1.23;;;25.90;36.30;;;;;;5118119;27;20047;-74
2022/01/05 10:53:20;;;;;;;1.50;1.30;;;25.90;36.30;;;;;;5119382;27;20442;-69
2022/01/05 10:55:48;;;;;;;3.28;1.30;;;25.90;36.30;;;;;;5129247;27;20112;-75
2022/01/05 10:58:17;;;;;;;1.85;1.17;;;26.00;36.30;;;;;;5138052;27;20552;-69
2022/01/05 11:00:51;;;;;;;5.05;1.23;;;26.00;36.30;;;;;;5124617;27;20073;-70
2022/01/05 11:03:37;;;;;;;1.45;1.00;;;25.90;36.30;;;;;;5110984;27;20408;-75
2022/01/05 11:06:11;;;;;;;9.02;1.15;;;25.90;36.20;;;;;;5121740;27;20046;-72
2022/01/05 11:08:55;;;;;;;2.70;1.25;;;25.90;35.90;;;;;;5123837;27;20480;-69
2022/01/05 11:11:47;;;;;;;1.67;1.33;;;25.90;35.70;;;;;;5129467;27;20210;-69
2022/01/05 11:14:20;;;;;;;2.80;1.23;;;25.90;35.60;;;;;;5127625;27;20043;-70
2022/01/05 11:16:53;;;;;;;0.85;0.70;;;25.90;35.60;;;;;;5124726;27;20063;-68
2022/01/05 11:19:22;;;;;;;1.88;1.27;;;25.80;35.40;;;;;;5110161;28;20109;-70
2022/01/05 11:22:17;;;;;;;1.10;1.10;;;25.80;35.30;;;;;;5119557;27;20120;-67
2022/01/05 11:24:52;;;;;;;1.75;1.10;;;25.80;35.30;;;;;;5114437;27;20105;-69
2022/01/05 11:27:28;;;;;;;1.65;1.15;;;25.80;35.30;;;;;;5125050;27;20127;-72
2022/01/05 11:29:56;;;;;;;2.35;1.48;;;25.80;35.30;;;;;;5109263;28;20048;-69
2022/01/05 11:32:27;;;;;;;1.40;1.30;;;25.80;35.30;;;;;;5109638;28;20048;-66
2022/01/05 11:34:56;;;;;;;3.90;1.90;;;25.80;35.40;;;;;;5109667;27;20057;-68
2022/01/05 11:37:23;;;;;;;1.33;1.20;;;25.80;35.30;;;;;;5124963;28;20450;-68
2022/01/05 11:39:53;;;;;;;1.52;1.35;;;25.80;35.30;;;;;;5129234;28;20058;-70
2022/01/05 11:42:28;;;;;;;3.00;1.25;;;25.80;35.30;;;;;;5129050;28;20047;-68
2022/01/05 11:44:57;;;;;;;1.98;1.10;;;25.80;35.20;;;;;;5127054;28;20052;-68
2022/01/05 11:47:30;;;;;;;1.42;1.33;;;25.90;35.30;;;;;;5123382;27;20035;-67
2022/01/05 11:50:24;;;;;;;1.10;1.00;;;25.90;35.20;;;;;;5133620;27;20468;-69
2022/01/05 11:53:09;;;;;;;1.25;1.00;;;25.90;35.30;;;;;;5133237;27;20126;-69
2022/01/05 11:56:02;;;;;;;0.90;0.90;;;25.90;35.30;;;;;;5127112;27;20092;-69
2022/01/05 11:58:31;;;;;;;1.13;1.08;;;25.90;35.20;;;;;;5128251;27;20075;-69
2022/01/05 12:01:28;;;;;;;1.20;1.10;;;25.90;35.20;;;;;;5114075;27;20054;-71
2022/01/05 12:04:01;;;;;;;0.85;0.85;;;25.90;35.30;;;;;;5101964;27;20111;-71
2022/01/05 12:06:31;;;;;;;1.15;1.05;;;25.90;35.40;;;;;;5129386;27;20130;-68
2022/01/05 12:09:17;;;;;;;;;;;25.90;35.40;;;;;;5130974;27;20086;-70
2022/01/05 12:11:44;;;;;;;2.88;1.30;;;25.80;35.40;;;;;;5132872;27;20022;-71
2022/01/05 12:14:42;;;;;;;0.98;0.98;;;25.80;35.50;;;;;;5131997;27;20043;-66
2022/01/05 12:17:14;;;;;;;2.35;1.55;;;25.80;35.60;;;;;;5115470;27;20484;-69
2022/01/05 12:20:03;;;;;;;1.58;1.27;;;25.70;35.50;;;;;;5131421;27;20093;-70
2022/01/05 12:22:31;;;;;;;1.92;1.50;;;25.60;35.60;;;;;;5098103;27;20058;-69
2022/01/05 12:25:12;;;;;;;3.65;1.13;;;25.60;35.80;;;;;;5131558;27;20123;-60
2022/01/05 12:27:50;;;;;;;1.73;1.25;;;25.60;36.10;;;;;;5127535;27;20457;-66
2022/01/05 12:30:38;;;;;;;1.73;1.05;;;25.50;36.20;;;;;;5116631;27;20147;-68
2022/01/05 12:36:46;;;;;;;9.50;1.25;;;25.50;37.00;;;;;;5119903;27;20053;-65
2022/01/05 12:39:14;;;;;;;1.90;0.90;;;25.40;36.90;;;;;;5108385;27;20079;-73
2022/01/05 12:41:44;;;;;;;1.27;0.95;;;25.40;36.70;;;;;;5123995;27;20043;-65
2022/01/05 12:44:32;;;;;;;1.17;0.65;;;25.40;36.70;;;;;;5131431;27;20340;-66
2022/01/05 12:46:59;;;;;;;3.22;0.88;;;25.40;36.60;;;;;;5124319;27;20151;-64
2022/01/05 12:49:32;;;;;;;1.80;0.90;;;25.30;36.60;;;;;;5131603;27;20079;-72
2022/01/05 12:52:05;;;;;;;1.15;0.63;;;25.30;36.50;;;;;;5122878;27;20137;-66
2022/01/05 12:58:09;;;;;;;0.80;0.80;;;25.30;36.50;;;;;;5081686;27;20169;-65
2022/01/05 13:00:36;;;;;;;0.75;0.60;;;25.30;36.60;;;;;;5130368;27;20456;-69
2022/01/05 13:03:03;;;;;;;0.80;0.75;;;25.30;36.70;;;;;;5113673;27;20092;-67
2022/01/05 13:05:33;;;;;;;1.13;0.63;;;25.30;36.80;;;;;;5131426;27;20051;-66
2022/01/05 13:08:06;;;;;;;0.70;0.70;;;25.30;36.80;;;;;;5133014;27;20134;-66
2022/01/05 13:10:41;;;;;;;0.60;0.60;;;25.30;36.60;;;;;;5130398;27;20062;-66
2022/01/05 13:13:08;;;;;;;0.80;0.77;;;25.30;36.50;;;;;;5125109;27;20043;-67
2022/01/05 13:15:36;;;;;;;2.38;0.60;;;25.30;36.40;;;;;;5131803;27;20046;-67
2022/01/05 13:18:03;;;;;;;0.40;0.40;;;25.20;36.20;;;;;;5132252;27;20043;-68
2022/01/05 13:20:30;;;;;;;0.40;0.40;;;25.20;36.10;;;;;;5130767;27;20234;-68
2022/01/05 13:22:59;;;;;;;1.85;0.88;;;25.10;36.00;;;;;;5126111;27;20130;-73